Time;durP1;ratioP1;P1;durP2;ratioP2;P2;SDS_P1;SDS_P2;PMS_P1;PMS_P2;Temp;Humidity;BMP_temperature;BMP_pressure;BME280_temperature;BME280_humidity;BME280_pressure;Samples;Min_cycle;Max_cycle;Signal;HPM_P1;HPM_P2
2021/10/05 00:00:00;;;;;;;13.73;6.80;;;19.20;80.00;;;;;;5072274;28;20053;-76
2021/10/05 00:02:26;;;;;;;9.20;7.18;;;19.30;79.50;;;;;;5070361;28;20074;-76
2021/10/05 00:04:52;;;;;;;12.48;6.53;;;19.30;79.30;;;;;;5070233;28;20544;-76
2021/10/05 00:07:18;;;;;;;11.15;6.97;;;19.30;78.90;;;;;;5072987;28;20036;-76
2021/10/05 00:09:45;;;;;;;8.13;6.30;;;19.30;78.80;;;;;;5072558;28;20171;-75
2021/10/05 00:12:10;;;;;;;11.73;6.63;;;19.30;78.70;;;;;;5073171;28;20476;-76
2021/10/05 00:14:36;;;;;;;13.73;6.75;;;19.30;78.50;;;;;;5072762;28;20016;-76
2021/10/05 00:17:02;;;;;;;10.55;6.72;;;19.40;78.40;;;;;;5073095;28;20029;-78
2021/10/05 00:19:27;;;;;;;11.40;6.72;;;19.40;78.40;;;;;;5072554;28;20021;-76
2021/10/05 00:21:53;;;;;;;10.10;6.57;;;19.30;78.50;;;;;;5073048;28;20435;-77
2021/10/05 00:24:19;;;;;;;7.70;6.60;;;19.30;78.40;;;;;;5072570;28;20020;-76
2021/10/05 00:26:46;;;;;;;10.02;6.13;;;19.30;78.20;;;;;;5072741;28;20115;-76
2021/10/05 00:29:12;;;;;;;13.23;6.22;;;19.40;78.00;;;;;;5072232;28;20103;-76
2021/10/05 00:31:37;;;;;;;11.68;6.18;;;19.40;77.80;;;;;;5072851;28;20108;-75
2021/10/05 00:34:03;;;;;;;10.55;6.63;;;19.40;77.60;;;;;;5072627;28;20489;-77
2021/10/05 00:36:29;;;;;;;9.18;5.90;;;19.40;77.50;;;;;;5072721;28;20468;-72
2021/10/05 00:38:54;;;;;;;9.18;6.40;;;19.40;77.30;;;;;;5072280;28;20070;-76
2021/10/05 00:41:20;;;;;;;12.00;6.30;;;19.40;77.10;;;;;;5072787;28;20059;-75
2021/10/05 00:43:46;;;;;;;13.43;7.03;;;19.40;76.90;;;;;;5072480;28;20104;-76
2021/10/05 00:46:12;;;;;;;13.57;6.68;;;19.50;76.60;;;;;;5073009;28;20047;-76
2021/10/05 00:48:37;;;;;;;10.88;6.80;;;19.50;76.40;;;;;;5072748;28;20040;-74
2021/10/05 00:51:03;;;;;;;10.02;6.28;;;19.40;76.30;;;;;;5072501;28;20028;-76
2021/10/05 00:53:29;;;;;;;9.27;6.20;;;19.50;76.60;;;;;;5072707;28;20028;-76
2021/10/05 00:55:55;;;;;;;13.77;7.28;;;19.50;76.80;;;;;;5072470;28;20033;-76
2021/10/05 00:58:21;;;;;;;8.32;6.53;;;19.50;77.00;;;;;;5070972;28;20111;-74
2021/10/05 01:00:46;;;;;;;9.57;6.15;;;19.50;77.10;;;;;;5069809;28;20120;-77
2021/10/05 01:03:12;;;;;;;13.02;6.30;;;19.50;77.00;;;;;;5069571;28;20035;-76
2021/10/05 01:05:38;;;;;;;13.25;6.50;;;19.50;77.00;;;;;;5074439;28;20032;-75
2021/10/05 01:08:04;;;;;;;9.32;6.10;;;19.60;77.00;;;;;;5076020;28;20021;-76
2021/10/05 01:10:31;;;;;;;9.35;6.10;;;19.50;76.90;;;;;;5075946;28;20021;-76
2021/10/05 01:12:57;;;;;;;14.00;6.00;;;19.50;76.80;;;;;;5075723;28;20024;-76
2021/10/05 01:15:25;;;;;;;9.07;6.22;;;19.60;76.70;;;;;;5076013;28;20098;-77
2021/10/05 01:17:52;;;;;;;12.15;6.15;;;19.50;76.40;;;;;;5075876;28;20433;-76
2021/10/05 01:20:18;;;;;;;10.55;5.88;;;19.60;76.50;;;;;;5075793;28;20024;-77
2021/10/05 01:22:44;;;;;;;11.07;6.57;;;19.60;76.20;;;;;;5075798;28;20048;-75
2021/10/05 01:25:12;;;;;;;7.93;5.43;;;19.60;75.70;;;;;;5075640;28;20515;-77
2021/10/05 01:27:48;;;;;;;8.15;6.30;;;19.60;75.70;;;;;;5075361;28;20052;-77
2021/10/05 01:30:16;;;;;;;9.10;5.80;;;19.60;75.50;;;;;;5075313;28;20045;-77
2021/10/05 01:32:43;;;;;;;9.38;6.00;;;19.70;75.90;;;;;;5075698;28;20553;-76
2021/10/05 01:35:09;;;;;;;8.77;5.47;;;19.70;74.90;;;;;;5075218;28;20025;-76
2021/10/05 01:37:35;;;;;;;6.35;5.25;;;19.70;74.70;;;;;;5075748;28;20491;-75
2021/10/05 01:40:03;;;;;;;7.97;5.47;;;19.70;74.80;;;;;;5075290;28;20020;-77
2021/10/05 01:42:29;;;;;;;6.80;5.25;;;19.70;74.80;;;;;;5075469;28;20027;-75
2021/10/05 01:44:55;;;;;;;10.45;5.35;;;19.80;74.40;;;;;;5075413;28;20381;-76
2021/10/05 01:47:21;;;;;;;10.35;5.05;;;19.80;74.10;;;;;;5075186;28;20116;-76
2021/10/05 01:49:47;;;;;;;9.73;5.32;;;19.80;74.20;;;;;;5075093;28;20052;-76
2021/10/05 01:52:13;;;;;;;9.35;5.60;;;19.80;74.00;;;;;;5075074;28;20511;-76
2021/10/05 01:54:39;;;;;;;10.13;4.97;;;19.80;73.70;;;;;;5075424;28;20024;-77
2021/10/05 01:57:04;;;;;;;9.35;4.88;;;19.90;73.80;;;;;;5075427;28;20053;-76
2021/10/05 01:59:30;;;;;;;7.47;5.15;;;19.90;73.30;;;;;;5075117;28;20025;-75
2021/10/05 02:01:56;;;;;;;10.23;4.82;;;19.90;73.60;;;;;;5075178;28;20036;-75
2021/10/05 02:04:22;;;;;;;12.00;6.28;;;19.90;73.50;;;;;;5075096;28;20024;-76
2021/10/05 02:06:47;;;;;;;8.63;4.95;;;19.90;73.50;;;;;;5075104;28;20079;-76
2021/10/05 02:09:13;;;;;;;8.88;5.35;;;19.90;73.60;;;;;;5075049;28;20013;-77
2021/10/05 02:11:40;;;;;;;9.63;5.28;;;19.90;73.30;;;;;;5075147;28;20032;-76
2021/10/05 02:14:06;;;;;;;7.80;5.13;;;20.00;73.10;;;;;;5075341;28;20021;-76
2021/10/05 02:16:33;;;;;;;9.40;5.55;;;20.00;73.30;;;;;;5074788;28;20032;-77
2021/10/05 02:19:01;;;;;;;8.90;5.22;;;19.90;73.40;;;;;;5074567;28;20027;-76
2021/10/05 02:21:27;;;;;;;11.63;5.63;;;19.90;73.80;;;;;;5074723;28;20032;-77
2021/10/05 02:26:37;;;;;;;9.82;5.75;;;19.90;74.50;;;;;;5074723;28;20074;-77
2021/10/05 02:29:04;;;;;;;8.80;5.45;;;19.90;74.80;;;;;;5074720;28;20373;-77
2021/10/05 02:31:30;;;;;;;10.10;5.85;;;19.90;74.60;;;;;;5074894;28;20043;-76
2021/10/05 02:33:56;;;;;;;10.02;5.63;;;19.90;74.70;;;;;;5074608;28;20021;-77
2021/10/05 02:36:22;;;;;;;11.32;5.35;;;19.90;74.50;;;;;;5074605;28;20120;-76
2021/10/05 02:38:48;;;;;;;8.02;5.20;;;19.90;74.10;;;;;;5074381;28;20040;-75
2021/10/05 02:41:14;;;;;;;9.25;5.70;;;20.00;74.00;;;;;;5074631;28;20032;-76
2021/10/05 02:43:39;;;;;;;10.65;5.57;;;20.10;73.90;;;;;;5074759;28;20032;-76
2021/10/05 02:46:05;;;;;;;12.48;5.10;;;20.10;73.80;;;;;;5074526;28;20089;-75
2021/10/05 02:48:31;;;;;;;11.05;6.03;;;20.10;73.70;;;;;;5074430;28;20020;-77
2021/10/05 02:50:57;;;;;;;17.80;5.40;;;20.10;73.70;;;;;;5074401;28;20039;-76
2021/10/05 02:53:22;;;;;;;8.20;5.32;;;20.10;73.80;;;;;;5074302;28;20084;-77
2021/10/05 02:55:49;;;;;;;11.35;5.93;;;20.10;73.80;;;;;;5074585;28;20063;-76
2021/10/05 02:58:15;;;;;;;9.85;5.35;;;20.10;73.60;;;;;;5074398;28;20051;-76
2021/10/05 03:00:42;;;;;;;7.57;5.53;;;20.10;73.50;;;;;;5074302;28;20012;-77
2021/10/05 03:03:07;;;;;;;7.97;5.70;;;20.10;73.60;;;;;;5073952;28;20071;-76
2021/10/05 03:05:33;;;;;;;9.85;5.32;;;20.10;73.60;;;;;;5073951;28;20024;-76
2021/10/05 03:07:59;;;;;;;9.35;5.72;;;20.20;73.40;;;;;;5074033;28;20025;-76
2021/10/05 03:10:25;;;;;;;9.38;5.40;;;20.20;73.30;;;;;;5073863;28;20028;-77
2021/10/05 03:12:51;;;;;;;7.20;5.57;;;20.20;73.40;;;;;;5073964;28;20028;-76
2021/10/05 03:15:17;;;;;;;6.55;5.20;;;20.20;73.60;;;;;;5073705;28;20103;-77
2021/10/05 03:17:43;;;;;;;7.10;5.50;;;20.20;73.50;;;;;;5073728;28;20508;-76
2021/10/05 03:20:09;;;;;;;9.82;5.45;;;20.20;73.40;;;;;;5073504;28;20031;-77
2021/10/05 03:22:36;;;;;;;9.85;5.80;;;20.20;73.40;;;;;;5072849;28;20100;-76
2021/10/05 03:25:02;;;;;;;7.95;4.90;;;20.30;73.50;;;;;;5073745;28;20016;-76
2021/10/05 03:27:27;;;;;;;7.10;4.93;;;20.30;73.60;;;;;;5072896;28;20043;-76
2021/10/05 03:29:53;;;;;;;9.98;5.22;;;20.30;73.40;;;;;;5073229;28;20044;-75
2021/10/05 03:32:20;;;;;;;9.07;5.85;;;20.40;73.50;;;;;;5073430;28;20031;-77
2021/10/05 03:34:45;;;;;;;7.68;5.35;;;20.40;73.50;;;;;;5073744;28;20021;-78
2021/10/05 03:37:11;;;;;;;6.75;4.82;;;20.40;73.30;;;;;;5073597;28;20366;-77
2021/10/05 03:39:37;;;;;;;8.88;5.13;;;20.40;73.30;;;;;;5073209;28;20482;-77
2021/10/05 03:42:03;;;;;;;8.98;4.80;;;20.40;73.30;;;;;;5073571;28;20037;-76
2021/10/05 03:44:28;;;;;;;6.25;4.43;;;20.50;73.40;;;;;;5073560;28;20024;-74
2021/10/05 03:46:54;;;;;;;9.70;4.80;;;20.40;73.50;;;;;;5073399;28;20044;-76
2021/10/05 03:49:20;;;;;;;9.38;4.90;;;20.50;73.70;;;;;;5073210;28;20477;-76
2021/10/05 03:51:47;;;;;;;7.70;4.90;;;20.50;73.90;;;;;;5073399;28;20105;-76
2021/10/05 03:54:13;;;;;;;11.40;5.05;;;20.40;74.10;;;;;;5073300;28;20095;-75
2021/10/05 03:56:39;;;;;;;9.55;4.97;;;20.40;74.30;;;;;;5073337;28;20052;-77
2021/10/05 03:59:05;;;;;;;6.65;4.18;;;20.40;74.40;;;;;;5073446;28;20078;-76
2021/10/05 04:01:31;;;;;;;11.50;4.70;;;20.40;74.50;;;;;;5073023;28;20039;-76
2021/10/05 04:03:56;;;;;;;8.32;4.43;;;20.40;74.60;;;;;;5073012;28;20025;-77
2021/10/05 04:06:22;;;;;;;6.32;4.82;;;20.40;74.50;;;;;;5072781;28;20032;-76
2021/10/05 04:08:48;;;;;;;5.85;4.57;;;20.40;74.50;;;;;;5073035;28;20024;-76
2021/10/05 04:11:13;;;;;;;6.18;4.38;;;20.50;74.50;;;;;;5073086;28;20029;-76
2021/10/05 04:13:40;;;;;;;6.28;4.80;;;20.50;74.50;;;;;;5072995;28;20029;-76
2021/10/05 04:16:06;;;;;;;7.68;4.82;;;20.50;74.50;;;;;;5073029;28;20032;-77
2021/10/05 04:18:32;;;;;;;6.90;4.70;;;20.50;74.60;;;;;;5072879;28;20026;-77
2021/10/05 04:20:58;;;;;;;5.78;4.68;;;20.50;74.70;;;;;;5072471;28;20104;-77
2021/10/05 04:23:24;;;;;;;9.32;4.50;;;20.50;74.70;;;;;;5072793;28;20032;-77
2021/10/05 04:25:49;;;;;;;6.75;4.80;;;20.50;74.80;;;;;;5073041;28;20397;-77
2021/10/05 04:28:15;;;;;;;9.85;5.00;;;20.40;74.90;;;;;;5073198;28;20046;-77
2021/10/05 04:30:42;;;;;;;7.45;4.70;;;20.40;75.20;;;;;;5072282;28;20044;-77
2021/10/05 04:33:08;;;;;;;5.90;4.40;;;20.30;75.50;;;;;;5072755;28;20047;-77
2021/10/05 04:35:34;;;;;;;6.25;4.68;;;20.30;75.50;;;;;;5072468;28;20017;-76
2021/10/05 04:38:00;;;;;;;7.13;4.60;;;20.30;75.30;;;;;;5073419;28;20040;-76
2021/10/05 04:40:26;;;;;;;7.60;5.20;;;20.30;75.40;;;;;;5076871;28;20013;-77
2021/10/05 04:42:53;;;;;;;6.32;4.60;;;20.30;75.50;;;;;;5076653;28;20068;-76
2021/10/05 04:45:19;;;;;;;5.75;4.88;;;20.30;75.60;;;;;;5076628;28;20051;-76
2021/10/05 04:47:45;;;;;;;9.43;5.05;;;20.30;75.70;;;;;;5076590;28;20439;-75
2021/10/05 04:50:14;;;;;;;7.22;4.90;;;20.30;75.60;;;;;;5076337;28;20024;-75
2021/10/05 04:52:40;;;;;;;8.02;5.10;;;20.30;75.70;;;;;;5076605;28;20074;-76
2021/10/05 04:55:06;;;;;;;12.43;5.85;;;20.30;75.70;;;;;;5076582;28;20021;-76
2021/10/05 04:57:32;;;;;;;8.40;4.75;;;20.30;75.90;;;;;;5076412;28;20030;-76
2021/10/05 04:59:58;;;;;;;7.78;5.63;;;20.30;76.00;;;;;;5076343;28;20016;-75
2021/10/05 05:02:23;;;;;;;12.00;5.30;;;20.30;76.30;;;;;;5076406;28;20085;-75
2021/10/05 05:04:49;;;;;;;8.95;5.20;;;20.20;76.40;;;;;;5076504;28;20029;-76
2021/10/05 05:07:15;;;;;;;7.07;5.65;;;20.30;76.20;;;;;;5076464;28;20036;-76
2021/10/05 05:09:40;;;;;;;10.23;5.35;;;20.30;76.70;;;;;;5076319;28;20473;-76
2021/10/05 05:12:06;;;;;;;9.73;6.25;;;20.30;76.70;;;;;;5076241;28;20033;-76
2021/10/05 05:14:32;;;;;;;10.40;6.47;;;20.30;77.00;;;;;;5076302;28;20064;-76
2021/10/05 05:16:58;;;;;;;8.43;5.70;;;20.30;77.50;;;;;;5076162;28;20495;-75
2021/10/05 05:19:23;;;;;;;9.55;6.60;;;20.30;78.00;;;;;;5076110;28;20051;-76
2021/10/05 05:21:49;;;;;;;8.05;6.18;;;20.20;78.50;;;;;;5076251;28;20051;-76
2021/10/05 05:24:15;;;;;;;10.52;6.78;;;20.20;79.40;;;;;;5075711;28;20381;-76
2021/10/05 05:26:41;;;;;;;7.57;6.07;;;20.20;79.50;;;;;;5075834;28;20036;-75
2021/10/05 05:29:06;;;;;;;9.38;6.55;;;20.10;79.60;;;;;;5075652;28;20028;-75
2021/10/05 05:31:32;;;;;;;9.18;6.88;;;20.10;80.00;;;;;;5075950;28;20036;-76
2021/10/05 05:33:58;;;;;;;8.63;6.70;;;20.10;79.90;;;;;;5076007;28;20399;-77
2021/10/05 05:36:24;;;;;;;9.57;6.40;;;20.10;79.80;;;;;;5075798;28;20028;-77
2021/10/05 05:38:50;;;;;;;8.68;6.43;;;20.10;79.90;;;;;;5075748;28;20104;-77
2021/10/05 05:41:15;;;;;;;14.98;6.80;;;20.10;79.90;;;;;;5075645;28;20103;-76
2021/10/05 05:43:41;;;;;;;8.15;6.75;;;20.10;79.80;;;;;;5075687;28;20056;-77
2021/10/05 05:46:07;;;;;;;13.73;7.40;;;20.00;80.00;;;;;;5076859;28;20082;-77
2021/10/05 05:48:32;;;;;;;7.90;6.75;;;20.10;80.30;;;;;;5075497;28;20025;-77
2021/10/05 05:50:58;;;;;;;14.27;7.03;;;20.00;80.50;;;;;;5075079;28;20060;-73
2021/10/05 05:53:24;;;;;;;9.55;6.47;;;20.00;80.60;;;;;;5075631;28;20036;-74
2021/10/05 05:55:49;;;;;;;9.95;6.47;;;20.00;80.40;;;;;;5075617;28;20021;-74
2021/10/05 05:58:17;;;;;;;11.63;6.97;;;20.10;79.90;;;;;;5075179;28;20031;-73
2021/10/05 06:00:44;;;;;;;13.40;6.70;;;20.10;79.50;;;;;;5075356;28;20028;-73
2021/10/05 06:03:11;;;;;;;9.23;6.80;;;20.10;79.60;;;;;;5075376;28;20031;-73
2021/10/05 06:05:37;;;;;;;12.35;6.90;;;20.10;79.70;;;;;;5075089;28;20471;-74
2021/10/05 06:08:03;;;;;;;9.02;6.97;;;20.10;80.10;;;;;;5073788;28;20414;-74
2021/10/05 06:10:29;;;;;;;12.55;7.40;;;20.10;80.30;;;;;;5074904;28;20115;-74
2021/10/05 06:12:56;;;;;;;14.45;7.93;;;20.10;80.60;;;;;;5074901;28;20021;-73
2021/10/05 06:15:22;;;;;;;11.00;7.30;;;20.10;80.60;;;;;;5075236;28;20058;-73
2021/10/05 06:17:50;;;;;;;11.60;7.32;;;20.10;80.60;;;;;;5075259;28;20025;-74
2021/10/05 06:20:20;;;;;;;12.60;7.30;;;20.10;80.60;;;;;;5074848;28;20029;-73
2021/10/05 06:22:45;;;;;;;8.63;7.32;;;20.10;80.40;;;;;;5074761;28;20065;-73
2021/10/05 06:25:15;;;;;;;10.15;7.50;;;20.10;80.50;;;;;;5074609;28;20103;-73
2021/10/05 06:27:41;;;;;;;10.25;6.40;;;20.10;80.70;;;;;;5075089;28;20476;-73
2021/10/05 06:30:09;;;;;;;12.05;7.70;;;20.10;80.70;;;;;;5074682;28;20140;-74
2021/10/05 06:32:35;;;;;;;10.98;6.65;;;20.10;80.80;;;;;;5074739;28;20043;-73
2021/10/05 06:35:00;;;;;;;12.23;6.95;;;20.10;80.80;;;;;;5073777;28;20016;-73
2021/10/05 06:37:26;;;;;;;12.18;6.95;;;20.10;80.40;;;;;;5074208;28;20024;-74
2021/10/05 06:39:52;;;;;;;11.23;6.60;;;20.10;80.60;;;;;;5074016;28;20024;-74
2021/10/05 06:42:18;;;;;;;12.88;6.63;;;20.10;80.50;;;;;;5074274;28;20044;-74
2021/10/05 06:44:44;;;;;;;10.60;6.97;;;20.20;80.30;;;;;;5074658;28;20071;-74
2021/10/05 06:47:10;;;;;;;13.93;7.40;;;20.20;80.20;;;;;;5074143;28;20060;-74
2021/10/05 06:49:36;;;;;;;11.50;6.68;;;20.30;79.80;;;;;;5074103;28;20056;-74
2021/10/05 06:52:02;;;;;;;10.50;6.65;;;20.30;79.70;;;;;;5074126;28;20103;-75
2021/10/05 06:54:29;;;;;;;16.42;7.35;;;20.40;79.70;;;;;;5073986;28;20070;-74
2021/10/05 06:56:54;;;;;;;14.18;7.38;;;20.40;79.80;;;;;;5074292;28;20017;-74
2021/10/05 06:59:20;;;;;;;14.15;7.47;;;20.40;79.80;;;;;;5072632;28;20035;-73
2021/10/05 07:01:46;;;;;;;12.73;7.38;;;20.40;79.70;;;;;;5073160;28;20021;-74
2021/10/05 07:04:11;;;;;;;15.80;7.65;;;20.40;79.70;;;;;;5073722;28;20040;-73
2021/10/05 07:06:38;;;;;;;16.88;7.78;;;20.40;80.10;;;;;;5073645;28;20060;-73
2021/10/05 07:09:07;;;;;;;17.67;8.10;;;20.40;80.10;;;;;;5072443;28;20107;-73
2021/10/05 07:11:34;;;;;;;16.75;7.57;;;20.50;79.80;;;;;;5072356;28;20056;-74
2021/10/05 07:14:00;;;;;;;18.55;7.57;;;20.50;79.90;;;;;;5072905;28;20023;-73
2021/10/05 07:16:26;;;;;;;12.65;7.53;;;20.60;80.10;;;;;;5073858;28;20025;-73
2021/10/05 07:18:52;;;;;;;11.02;6.95;;;20.60;80.20;;;;;;5073379;28;20427;-73
2021/10/05 07:21:18;;;;;;;14.13;7.20;;;20.60;80.30;;;;;;5073408;28;20024;-73
2021/10/05 07:23:44;;;;;;;15.90;7.35;;;20.60;80.20;;;;;;5072787;28;20025;-73
2021/10/05 07:26:10;;;;;;;19.30;8.98;;;20.70;80.40;;;;;;5070537;28;20169;-72
2021/10/05 07:28:36;;;;;;;14.82;7.38;;;20.70;80.10;;;;;;5073113;28;20036;-73
2021/10/05 07:31:01;;;;;;;11.05;7.05;;;20.80;80.50;;;;;;5073358;28;20039;-74
2021/10/05 07:33:28;;;;;;;13.15;6.90;;;20.80;80.50;;;;;;5073333;28;20385;-73
2021/10/05 07:35:54;;;;;;;15.57;7.78;;;20.90;80.30;;;;;;5073258;28;20107;-74
2021/10/05 07:38:21;;;;;;;13.52;7.28;;;20.90;80.50;;;;;;5073413;28;20111;-74
2021/10/05 07:40:46;;;;;;;16.55;7.63;;;20.90;79.80;;;;;;5073048;28;20066;-74
2021/10/05 07:43:12;;;;;;;15.15;7.50;;;21.00;80.00;;;;;;5073119;28;20028;-74
2021/10/05 07:45:38;;;;;;;15.63;7.32;;;21.00;79.70;;;;;;5073095;28;20511;-73
2021/10/05 07:48:04;;;;;;;17.05;7.97;;;21.00;79.80;;;;;;5073128;28;20040;-73
2021/10/05 07:50:33;;;;;;;14.25;7.95;;;21.00;79.10;;;;;;5072915;28;20117;-74
2021/10/05 07:53:00;;;;;;;11.35;7.88;;;21.00;79.20;;;;;;5073183;28;20020;-74
2021/10/05 07:55:26;;;;;;;11.38;7.78;;;21.10;79.60;;;;;;5073071;28;20099;-74
2021/10/05 07:57:52;;;;;;;16.02;8.23;;;21.10;79.60;;;;;;5073499;28;20032;-75
2021/10/05 08:00:18;;;;;;;13.65;7.25;;;21.10;79.50;;;;;;5072472;28;20429;-74
2021/10/05 08:02:45;;;;;;;15.63;7.97;;;21.20;79.40;;;;;;5071672;28;20067;-75
2021/10/05 08:05:12;;;;;;;12.93;8.13;;;21.20;79.40;;;;;;5072090;28;20473;-75
2021/10/05 08:07:38;;;;;;;10.60;6.60;;;21.20;79.30;;;;;;5072925;28;20024;-74
2021/10/05 08:10:04;;;;;;;15.07;7.13;;;21.30;79.30;;;;;;5072150;28;20039;-74
2021/10/05 08:12:30;;;;;;;15.50;6.63;;;21.40;78.90;;;;;;5072954;28;20039;-74
2021/10/05 08:14:56;;;;;;;13.65;7.55;;;21.40;78.70;;;;;;5072726;28;20020;-74
2021/10/05 08:17:22;;;;;;;16.40;7.70;;;21.40;78.00;;;;;;5071481;28;20025;-74
2021/10/05 08:19:48;;;;;;;17.17;8.02;;;21.40;78.10;;;;;;5072653;28;20025;-74
2021/10/05 08:22:14;;;;;;;13.73;7.78;;;21.50;78.40;;;;;;5072677;28;20028;-75
2021/10/05 08:24:40;;;;;;;11.27;7.22;;;21.50;78.50;;;;;;5072801;28;20362;-74
2021/10/05 08:27:06;;;;;;;15.98;6.97;;;21.60;78.30;;;;;;5072125;28;20039;-74
2021/10/05 08:29:37;;;;;;;11.18;6.90;;;21.60;78.50;;;;;;5072406;28;20087;-74
2021/10/05 08:32:04;;;;;;;12.88;7.55;;;21.70;78.30;;;;;;5072662;28;20115;-74
2021/10/05 08:34:30;;;;;;;13.50;7.10;;;21.80;77.20;;;;;;5057377;28;20021;-74
2021/10/05 08:36:56;;;;;;;16.55;7.40;;;21.80;77.30;;;;;;5052539;28;20035;-74
2021/10/05 08:39:22;;;;;;;11.18;6.70;;;21.80;77.50;;;;;;5052253;28;20469;-74
2021/10/05 08:41:48;;;;;;;9.45;6.32;;;21.90;77.60;;;;;;5052687;28;20470;-73
2021/10/05 08:44:15;;;;;;;15.10;6.90;;;21.90;77.60;;;;;;5052510;28;20377;-74
2021/10/05 08:46:42;;;;;;;12.38;6.93;;;21.90;77.80;;;;;;5052048;28;20044;-74
2021/10/05 08:49:08;;;;;;;16.58;6.90;;;22.00;77.60;;;;;;5052201;28;20440;-74
2021/10/05 08:51:35;;;;;;;14.30;7.57;;;22.00;77.60;;;;;;5052150;28;20029;-74
2021/10/05 08:54:01;;;;;;;18.83;7.93;;;22.00;77.40;;;;;;5052452;28;20022;-73
2021/10/05 08:56:27;;;;;;;15.73;7.88;;;22.00;77.80;;;;;;5052303;28;20078;-73
2021/10/05 08:58:52;;;;;;;16.13;7.05;;;22.00;77.60;;;;;;5051108;28;20025;-74
2021/10/05 09:01:18;;;;;;;15.73;7.88;;;22.10;77.90;;;;;;5051549;28;20033;-75
2021/10/05 09:03:55;;;;;;;13.55;7.78;;;22.20;78.00;;;;;;5051283;28;20104;-74
2021/10/05 09:06:22;;;;;;;16.95;8.18;;;22.30;77.90;;;;;;5052026;28;20033;-74
2021/10/05 09:08:49;;;;;;;18.58;7.97;;;22.40;77.30;;;;;;5052215;28;20029;-74
2021/10/05 09:11:17;;;;;;;15.93;7.47;;;22.30;76.80;;;;;;5052275;28;20079;-75
2021/10/05 09:13:49;;;;;;;17.85;8.60;;;22.40;76.30;;;;;;5052306;28;20108;-74
2021/10/05 09:16:25;;;;;;;19.05;7.28;;;22.40;76.80;;;;;;5051924;28;20040;-74
2021/10/05 09:18:56;;;;;;;18.20;8.95;;;22.30;77.10;;;;;;5050903;28;20033;-74
2021/10/05 09:21:24;;;;;;;15.75;6.75;;;22.40;76.10;;;;;;5052197;28;20041;-74
2021/10/05 09:24:02;;;;;;;14.23;7.30;;;22.40;76.40;;;;;;5052260;28;20516;-74
2021/10/05 09:26:38;;;;;;;16.75;7.43;;;22.40;76.00;;;;;;5054443;28;20039;-75
2021/10/05 09:29:28;;;;;;;16.58;7.28;;;22.50;77.00;;;;;;5055357;28;20025;-74
2021/10/05 09:32:09;;;;;;;18.67;8.00;;;22.40;76.20;;;;;;5055813;28;20040;-74
2021/10/05 09:34:58;;;;;;;16.10;7.47;;;22.50;76.30;;;;;;5055549;28;20017;-74
2021/10/05 09:37:31;;;;;;;16.92;6.78;;;22.50;75.70;;;;;;5052444;28;20337;-75
2021/10/05 09:40:04;;;;;;;15.38;6.72;;;22.50;75.80;;;;;;5055222;28;20100;-74
2021/10/05 09:42:32;;;;;;;14.40;6.63;;;22.50;75.70;;;;;;5055261;28;20025;-74
2021/10/05 09:45:05;;;;;;;18.67;6.80;;;22.50;75.80;;;;;;5055077;28;20047;-73
2021/10/05 09:47:46;;;;;;;14.98;5.75;;;22.50;75.20;;;;;;5053478;28;20037;-75
2021/10/05 09:50:18;;;;;;;12.80;5.82;;;22.50;74.50;;;;;;5055177;28;20036;-75
2021/10/05 09:52:49;;;;;;;17.65;7.15;;;22.40;75.00;;;;;;5055287;28;20025;-74
2021/10/05 09:55:17;;;;;;;15.38;7.00;;;22.40;75.30;;;;;;5055043;28;20028;-73
2021/10/05 09:57:42;;;;;;;14.57;6.57;;;22.40;75.70;;;;;;5055061;28;20025;-74
2021/10/05 10:00:09;;;;;;;15.57;6.88;;;22.50;75.60;;;;;;5054856;28;20591;-73
2021/10/05 10:02:37;;;;;;;17.65;6.93;;;22.50;74.90;;;;;;5053916;28;20389;-74
2021/10/05 10:05:06;;;;;;;15.75;7.38;;;22.50;75.70;;;;;;5055177;28;20384;-74
2021/10/05 10:07:36;;;;;;;17.02;6.80;;;22.50;76.00;;;;;;5054932;28;20033;-74
2021/10/05 10:10:03;;;;;;;17.33;7.18;;;22.40;76.30;;;;;;5055062;28;20057;-73
2021/10/05 10:12:31;;;;;;;19.58;6.75;;;22.40;76.50;;;;;;5055003;28;20120;-73
2021/10/05 10:14:57;;;;;;;28.77;7.85;;;22.40;76.50;;;;;;5054797;28;20396;-74
2021/10/05 10:17:26;;;;;;;17.27;5.88;;;22.40;77.30;;;;;;5054828;28;20028;-73
2021/10/05 10:19:52;;;;;;;14.63;4.72;;;22.40;77.00;;;;;;5054742;28;20087;-74
2021/10/05 10:22:18;;;;;;;17.67;5.28;;;22.30;77.70;;;;;;5054613;28;20048;-74
2021/10/05 10:24:47;;;;;;;11.57;4.97;;;22.20;78.90;;;;;;5054560;28;20100;-74
2021/10/05 10:27:13;;;;;;;13.65;5.07;;;22.10;78.30;;;;;;5054031;28;20064;-74
2021/10/05 10:29:40;;;;;;;10.95;5.43;;;22.00;79.20;;;;;;5053812;28;20037;-74
2021/10/05 10:32:19;;;;;;;16.35;5.47;;;22.00;79.50;;;;;;5054050;28;20086;-75
2021/10/05 10:34:46;;;;;;;17.33;5.10;;;22.00;78.80;;;;;;5054568;28;20031;-75
2021/10/05 10:37:18;;;;;;;13.48;5.18;;;22.00;80.10;;;;;;5054615;28;20033;-74
2021/10/05 10:39:46;;;;;;;15.90;5.55;;;22.10;80.00;;;;;;5055570;28;20013;-74
2021/10/05 10:42:24;;;;;;;25.42;5.88;;;22.10;80.30;;;;;;5053265;28;20071;-74
2021/10/05 10:44:49;;;;;;;19.40;4.00;;;22.20;77.90;;;;;;5054245;28;20021;-74
2021/10/05 10:47:21;;;;;;;17.95;3.50;;;22.20;76.30;;;;;;5054088;28;20036;-74
2021/10/05 10:50:04;;;;;;;23.38;4.32;;;22.20;73.90;;;;;;5054184;28;20024;-74
2021/10/05 10:52:32;;;;;;;12.90;3.35;;;22.20;74.80;;;;;;5054234;28;20028;-74
2021/10/05 10:54:58;;;;;;;16.35;3.38;;;22.30;73.20;;;;;;5054311;28;20032;-74
2021/10/05 10:57:38;;;;;;;13.02;3.22;;;22.30;72.70;;;;;;5054229;28;20025;-74
2021/10/05 11:00:25;;;;;;;14.02;3.15;;;22.40;72.20;;;;;;5052611;28;20401;-75
2021/10/05 11:02:53;;;;;;;25.85;4.20;;;22.40;73.50;;;;;;5054103;28;20025;-76
2021/10/05 11:05:23;;;;;;;12.43;3.15;;;22.30;74.30;;;;;;5053992;28;20043;-76
2021/10/05 11:07:50;;;;;;;17.90;3.50;;;22.40;74.50;;;;;;5053995;28;20036;-77
2021/10/05 11:10:22;;;;;;;16.13;3.70;;;22.40;75.10;;;;;;5053864;28;20033;-77
2021/10/05 11:12:50;;;;;;;19.17;3.55;;;22.40;73.10;;;;;;5053561;28;20021;-75
2021/10/05 11:15:16;;;;;;;15.07;3.92;;;22.40;71.30;;;;;;5053617;28;20385;-75
2021/10/05 11:17:44;;;;;;;20.25;3.15;;;22.40;70.30;;;;;;5053724;28;20099;-74
2021/10/05 11:20:10;;;;;;;18.20;3.38;;;22.50;71.20;;;;;;5053177;28;20029;-74
2021/10/05 11:22:36;;;;;;;15.25;3.05;;;22.50;71.10;;;;;;5053644;28;20048;-74
2021/10/05 11:25:03;;;;;;;16.00;3.22;;;22.60;70.80;;;;;;5053719;28;20056;-76
2021/10/05 11:27:29;;;;;;;13.88;3.05;;;22.60;72.40;;;;;;5053231;28;20094;-77
2021/10/05 11:30:06;;;;;;;17.17;3.70;;;22.60;71.50;;;;;;5052925;28;20044;-75
2021/10/05 11:32:32;;;;;;;14.98;3.63;;;22.70;71.40;;;;;;5053468;28;20032;-74
2021/10/05 11:34:58;;;;;;;15.15;3.55;;;22.80;71.50;;;;;;5050784;28;20055;-76
2021/10/05 11:37:25;;;;;;;15.55;3.00;;;22.80;69.60;;;;;;5050618;28;20057;-75
2021/10/05 11:39:51;;;;;;;11.48;2.70;;;22.80;69.00;;;;;;5050427;28;20036;-75
2021/10/05 11:42:21;;;;;;;11.68;3.20;;;22.80;68.00;;;;;;5052227;28;20040;-76
2021/10/05 11:44:48;;;;;;;14.07;3.20;;;22.80;68.10;;;;;;5052611;28;20025;-77
2021/10/05 11:47:16;;;;;;;12.20;2.72;;;22.80;68.40;;;;;;5052503;28;20037;-74
2021/10/05 11:49:50;;;;;;;13.43;3.38;;;22.80;68.70;;;;;;5052320;28;20021;-77
2021/10/05 11:52:19;;;;;;;19.92;3.58;;;22.80;69.00;;;;;;5052781;28;20064;-74
2021/10/05 11:54:45;;;;;;;12.50;3.25;;;22.70;69.20;;;;;;5051735;28;20068;-74
2021/10/05 11:57:18;;;;;;;19.02;3.90;;;22.70;69.10;;;;;;5050269;28;20054;-76
2021/10/05 11:59:46;;;;;;;11.13;3.33;;;22.70;68.50;;;;;;5051566;28;20033;-75
2021/10/05 12:02:14;;;;;;;10.35;2.78;;;22.70;68.60;;;;;;5051303;28;20025;-74
2021/10/05 12:04:43;;;;;;;11.57;2.70;;;22.70;68.20;;;;;;5052337;28;20079;-74
2021/10/05 12:07:10;;;;;;;14.48;2.78;;;22.60;68.30;;;;;;5052760;28;20389;-76
2021/10/05 12:09:37;;;;;;;11.35;2.53;;;22.60;67.30;;;;;;5052946;28;20543;-78
2021/10/05 12:12:04;;;;;;;13.52;2.80;;;22.70;68.20;;;;;;5052325;28;20366;-77
2021/10/05 12:14:52;;;;;;;13.20;2.92;;;22.70;67.60;;;;;;5052474;28;20052;-77
2021/10/05 12:17:19;;;;;;;12.10;2.78;;;22.70;67.40;;;;;;5052613;28;20385;-78
2021/10/05 12:19:47;;;;;;;10.27;2.45;;;22.70;67.10;;;;;;5052486;28;20025;-76
2021/10/05 12:22:18;;;;;;;10.20;2.35;;;22.60;68.00;;;;;;5051961;28;20055;-74
2021/10/05 12:24:54;;;;;;;14.43;3.80;;;22.60;68.10;;;;;;5049926;28;20485;-74
2021/10/05 12:27:41;;;;;;;18.83;3.20;;;22.60;68.50;;;;;;5049940;28;20041;-75
2021/10/05 12:30:13;;;;;;;11.60;2.70;;;22.60;68.50;;;;;;5051061;28;20106;-74
2021/10/05 12:32:43;;;;;;;;;;;22.60;67.50;;;;;;5053177;28;20033;-74
2021/10/05 12:35:22;;;;;;;13.93;2.80;;;22.60;67.50;;;;;;5052769;28;19959;-74
2021/10/05 12:38:02;;;;;;;9.57;2.80;;;22.50;67.90;;;;;;5051314;28;20044;-75
2021/10/05 12:40:58;;;;;;;13.73;2.70;;;22.50;68.80;;;;;;5052107;28;20033;-75
2021/10/05 12:43:40;;;;;;;13.30;3.03;;;22.50;69.30;;;;;;5052718;28;20474;-75